| time (UTC) | temp C | wind direction | speed KPH | gust KPH | rain 1hr cm | rain 24hr cm | rain mn cm | humidity % | barometer mb |
| 20260509201818 | 16 | 340 | 0.0 | 0.0 | 0.00 | 0.00 | 0.00 | 54 | 1019.3 |
| 20260509200318 | 16 | 328 | 0.0 | 0.0 | 0.00 | 0.00 | 0.00 | 55 | 1019.1 |
| 20260509194818 | 16 | 325 | 0.0 | 0.0 | 0.00 | 0.00 | 0.00 | 53 | 1018.9 |
| 20260509193317 | 16 | 317 | 0.0 | 0.0 | 0.00 | 0.00 | 0.00 | 53 | 1018.5 |
| 20260509191818 | 16 | 321 | 3.2 | 4.8 | 0.00 | 0.00 | 0.00 | 54 | 1018.3 |
| 20260509190317 | 16 | 336 | 0.0 | 0.0 | 0.00 | 0.00 | 0.00 | 55 | 1018.2 |
| 20260509184818 | 16 | 337 | 0.0 | 1.6 | 0.00 | 0.00 | 0.00 | 52 | 1018.1 |
| 20260509183319 | 16 | 26 | 0.0 | 1.6 | 0.00 | 0.00 | 0.00 | 51 | 1017.9 |
| 20260509181817 | 16 | 329 | 0.0 | 1.6 | 0.00 | 0.00 | 0.00 | 53 | 1017.7 |
| 20260509180318 | 16 | 348 | 0.0 | 0.0 | 0.00 | 0.00 | 0.00 | 53 | 1017.6 |
| 20260509174819 | 16 | 26 | 0.0 | 0.0 | 0.00 | 0.00 | 0.00 | 50 | 1017.5 |
| 20260509173317 | 16 | 26 | 0.0 | 0.0 | 0.00 | 0.00 | 0.00 | 50 | 1017.5 |
| 20260509171818 | 16 | 31 | 0.0 | 0.0 | 0.00 | 0.00 | 0.00 | 50 | 1017.4 |
| 20260509170317 | 16 | 346 | 1.6 | 1.6 | 0.00 | 0.00 | 0.00 | 50 | 1017.2 |
| 20260509164818 | 16 | 3 | 1.6 | 3.2 | 0.00 | 0.00 | 0.00 | 49 | 1017.2 |
| 20260509163318 | 17 | 15 | 3.2 | 4.8 | 0.00 | 0.00 | 0.00 | 49 | 1017.3 |
| 20260509161818 | 17 | 10 | 4.8 | 14.5 | 0.00 | 0.00 | 0.00 | 48 | 1017.3 |
| 20260509160317 | 17 | 348 | 3.2 | 8.0 | 0.00 | 0.00 | 0.00 | 48 | 1017.1 |
| 20260509154818 | 17 | 355 | 3.2 | 4.8 | 0.00 | 0.00 | 0.00 | 47 | 1017.0 |
| 20260509153319 | 17 | 13 | 8.0 | 11.3 | 0.00 | 0.00 | 0.00 | 46 | 1017.0 |
| 20260509151817 | 17 | 14 | 4.8 | 11.3 | 0.00 | 0.00 | 0.00 | 45 | 1017.1 |
| 20260509150318 | 17 | 41 | 3.2 | 3.2 | 0.00 | 0.00 | 0.00 | 44 | 1017.2 |
| 20260509144819 | 17 | 321 | 3.2 | 4.8 | 0.00 | 0.00 | 0.00 | 44 | 1017.0 |
| 20260509143317 | 18 | 23 | 4.8 | 4.8 | 0.00 | 0.00 | 0.00 | 43 | 1017.0 |
| 20260509141818 | 18 | 355 | 1.6 | 1.6 | 0.00 | 0.00 | 0.00 | 42 | 1016.7 |
| 20260509140319 | 18 | 6 | 4.8 | 8.0 | 0.00 | 0.00 | 0.00 | 41 | 1016.5 |
| 20260509134819 | 18 | 2 | 3.2 | 9.7 | 0.00 | 0.00 | 0.00 | 40 | 1016.3 |
| 20260509133317 | 18 | 9 | 1.6 | 8.0 | 0.00 | 0.00 | 0.00 | 38 | 1016.2 |
| 20260509131818 | 18 | 47 | 0.0 | 0.0 | 0.00 | 0.00 | 0.00 | 41 | 1016.1 |
| 20260509130319 | 18 | 318 | 1.6 | 3.2 | 0.00 | 0.00 | 0.00 | 40 | 1016.0 |
| 20260509124817 | 18 | 338 | 0.0 | 3.2 | 0.00 | 0.00 | 0.00 | 40 | 1015.9 |
| 20260509123318 | 18 | 298 | 0.0 | 0.0 | 0.00 | 0.00 | 0.00 | 44 | 1015.8 |
| 20260509121818 | 18 | 296 | 0.0 | 0.0 | 0.00 | 0.00 | 0.00 | 46 | 1015.9 |
| 20260509120318 | 18 | 295 | 0.0 | 0.0 | 0.00 | 0.00 | 0.00 | 43 | 1015.7 |
| 20260509114817 | 18 | 295 | 0.0 | 0.0 | 0.00 | 0.00 | 0.00 | 45 | 1015.6 |
| 20260509113317 | 18 | 295 | 0.0 | 0.0 | 0.00 | 0.00 | 0.00 | 42 | 1015.4 |
| 20260509111818 | 19 | 295 | 0.0 | 0.0 | 0.00 | 0.00 | 0.00 | 41 | 1015.2 |
| 20260509110318 | 19 | 296 | 0.0 | 0.0 | 0.00 | 0.00 | 0.00 | 40 | 1015.0 |
| 20260509104817 | 20 | 250 | 0.0 | 0.0 | 0.00 | 0.00 | 0.00 | 42 | 1014.9 |
| 20260509103317 | 20 | 282 | 0.0 | 0.0 | 0.00 | 0.00 | 0.00 | 39 | 1014.5 |
| 20260509101818 | 20 | 306 | 0.0 | 1.6 | 0.00 | 0.00 | 0.00 | 37 | 1014.2 |
| 20260509100319 | 21 | 293 | 1.6 | 4.8 | 0.00 | 0.00 | 0.00 | 37 | 1013.9 |
| 20260509094817 | 21 | 338 | 3.2 | 11.3 | 0.00 | 0.00 | 0.00 | 35 | 1013.7 |
| 20260509093318 | 21 | 14 | 4.8 | 8.0 | 0.00 | 0.00 | 0.00 | 34 | 1013.5 |
| 20260509091818 | 22 | 3 | 4.8 | 11.3 | 0.00 | 0.00 | 0.00 | 35 | 1013.2 |
| 20260509090317 | 22 | 20 | 3.2 | 8.0 | 0.00 | 0.00 | 0.00 | 34 | 1012.9 |
| 20260509084817 | 22 | 0 | 1.6 | 8.0 | 0.00 | 0.00 | 0.00 | 34 | 1012.7 |
| 20260509083318 | 22 | 4 | 14.5 | 19.3 | 0.00 | 0.00 | 0.00 | 33 | 1012.2 |
| 20260509081818 | 23 | 3 | 12.9 | 16.1 | 0.00 | 0.00 | 0.00 | 34 | 1012.1 |
| 20260509080317 | 23 | 19 | 12.9 | 22.5 | 0.00 | 0.00 | 0.00 | 34 | 1012.0 |
| 20260509074817 | 23 | 9 | 11.3 | 19.3 | 0.00 | 0.00 | 0.00 | 35 | 1011.8 |
| 20260509073318 | 23 | 4 | 8.0 | 12.9 | 0.00 | 0.00 | 0.00 | 35 | 1011.4 |
| 20260509071819 | 23 | 356 | 3.2 | 4.8 | 0.00 | 0.00 | 0.00 | 36 | 1011.1 |
| 20260509070317 | 23 | 4 | 8.0 | 11.3 | 0.00 | 0.00 | 0.00 | 36 | 1010.9 |
| 20260509064818 | 23 | 16 | 16.1 | 33.8 | 0.00 | 0.00 | 0.00 | 35 | 1010.4 |
| 20260509063318 | 23 | 349 | 4.8 | 11.3 | 0.00 | 0.00 | 0.00 | 37 | 1010.4 |
| 20260509061817 | 23 | 345 | 11.3 | 19.3 | 0.00 | 0.00 | 0.00 | 37 | 1010.5 |
| 20260509060318 | 23 | 354 | 9.7 | 19.3 | 0.00 | 0.00 | 0.00 | 38 | 1010.4 |
| 20260509054818 | 23 | 347 | 11.3 | 14.5 | 0.00 | 0.00 | 0.00 | 38 | 1010.3 |
| 20260509053318 | 23 | 11 | 12.9 | 20.9 | 0.00 | 0.00 | 0.00 | 39 | 1010.1 |
| 20260509051817 | 23 | 16 | 11.3 | 14.5 | 0.00 | 0.00 | 0.00 | 40 | 1010.2 |
| 20260509050318 | 23 | 10 | 12.9 | 19.3 | 0.00 | 0.00 | 0.00 | 39 | 1010.0 |
| 20260509044818 | 23 | 356 | 12.9 | 22.5 | 0.00 | 0.00 | 0.00 | 40 | 1009.9 |
| 20260509043317 | 22 | 29 | 19.3 | 29.0 | 0.00 | 0.00 | 0.00 | 40 | 1009.9 |
| 20260509041818 | 23 | 27 | 8.0 | 19.3 | 0.00 | 0.00 | 0.00 | 41 | 1010.0 |
| 20260509040317 | 23 | 7 | 11.3 | 16.1 | 0.00 | 0.00 | 0.00 | 42 | 1010.3 |
| 20260509034818 | 22 | 340 | 11.3 | 19.3 | 0.00 | 0.00 | 0.00 | 43 | 1010.3 |
| 20260509033318 | 23 | 21 | 12.9 | 22.5 | 0.00 | 0.00 | 0.00 | 43 | 1010.4 |
| 20260509031819 | 22 | 3 | 14.5 | 25.7 | 0.00 | 0.00 | 0.00 | 43 | 1010.5 |
| 20260509030317 | 22 | 10 | 8.0 | 19.3 | 0.00 | 0.00 | 0.00 | 43 | 1010.4 |
| 20260509024818 | 22 | 29 | 16.1 | 24.1 | 0.00 | 0.00 | 0.00 | 44 | 1010.3 |
| 20260509023318 | 22 | 10 | 12.9 | 20.9 | 0.00 | 0.00 | 0.00 | 42 | 1010.5 |
| 20260509021818 | 22 | 283 | 4.8 | 11.3 | 0.00 | 0.00 | 0.00 | 45 | 1010.2 |
| 20260509020317 | 22 | 16 | 11.3 | 22.5 | 0.00 | 0.00 | 0.00 | 43 | 1010.2 |
| 20260509014817 | 22 | 23 | 12.9 | 24.1 | 0.00 | 0.00 | 0.00 | 43 | 1010.3 |
| 20260509013318 | 21 | 335 | 14.5 | 29.0 | 0.00 | 0.00 | 0.00 | 44 | 1010.3 |
| 20260509011817 | 22 | 281 | 4.8 | 14.5 | 0.00 | 0.00 | 0.00 | 45 | 1010.2 |
| 20260509010318 | 22 | 307 | 4.8 | 12.9 | 0.00 | 0.00 | 0.00 | 44 | 1010.1 |
| 20260509004818 | 21 | 233 | 3.2 | 11.3 | 0.00 | 0.00 | 0.00 | 45 | 1009.9 |
| 20260509003319 | 21 | 267 | 3.2 | 9.7 | 0.00 | 0.00 | 0.00 | 43 | 1009.7 |
| 20260509001818 | 21 | 284 | 3.2 | 9.7 | 0.00 | 0.00 | 0.00 | 43 | 1009.7 |
| 20260509000318 | 21 | 320 | 3.2 | 4.8 | 0.00 | 0.00 | 0.00 | 41 | 1009.3 |
| 20260508234819 | 21 | 278 | 3.2 | 3.2 | 0.00 | 0.00 | 0.00 | 41 | 1009.1 |
| 20260508233317 | 21 | 347 | 3.2 | 4.8 | 0.00 | 0.00 | 0.00 | 38 | 1009.0 |
| 20260508231818 | 21 | 292 | 3.2 | 11.3 | 0.00 | 0.00 | 0.00 | 40 | 1008.8 |
| 20260508230318 | 20 | 332 | 1.6 | 3.2 | 0.00 | 0.00 | 0.00 | 40 | 1008.4 |
| 20260508224817 | 20 | 301 | 3.2 | 8.0 | 0.00 | 0.00 | 0.00 | 43 | 1008.2 |
| 20260508223318 | 20 | 341 | 3.2 | 3.2 | 0.00 | 0.00 | 0.00 | 45 | 1008.0 |
| 20260508221818 | 18 | 347 | 1.6 | 8.0 | 0.00 | 0.00 | 0.00 | 44 | 1007.7 |
| 20260508220318 | 18 | 292 | 1.6 | 3.2 | 0.00 | 0.00 | 0.00 | 46 | 1007.5 |
| 20260508214817 | 17 | 23 | 0.0 | 3.2 | 0.00 | 0.00 | 0.00 | 47 | 1007.4 |
| 20260508213317 | 17 | 24 | 1.6 | 4.8 | 0.00 | 0.00 | 0.00 | 45 | 1007.2 |
| 20260508211818 | 17 | 348 | 1.6 | 3.2 | 0.00 | 0.00 | 0.00 | 46 | 1006.9 |
| 20260508210318 | 17 | 340 | 1.6 | 1.6 | 0.00 | 0.00 | 0.00 | 45 | 1006.6 |
| 20260508204819 | 17 | 340 | 0.0 | 0.0 | 0.00 | 0.00 | 0.00 | 46 | 1006.2 |
| 20260508203317 | 17 | 343 | 1.6 | 4.8 | 0.00 | 0.00 | 0.00 | 43 | 1005.9 |